Arnos Vale, Saint Vincent

3:50 PM AST on April 28, 2015 (GMT -0400)
E T Joshua | | Change Station
CLOSE
Current Station
Airport
Location: Arnos Vale,
Elevation: 43 ft
Nearby Weather Stations

Elev 43 ft 13.14 °N, 61.21 °W | Updated 50 minutes ago

Partly Cloudy
Partly Cloudy
86 °F
Feels Like 93 °F
N
16
Wind Variable Wind from East

Today
High -- | Low -- °F
--% Chance of Precip.
Yesterday
High -- | Low -- °F
Precip. -- in
5:45 AM 6:19 PM
Waxing Gibbous, 76% visible
Pressure --
Visibility 6.2 miles
Clouds Few 2300 ft
Heat Index 93 °F
Dew Point 73 °F
Humidity 66%
Rainfall 0.00 in
Snow Depth Not available.
UV 9 out of 12
Pollen Not available.
Air Quality Not available.
Flu Activity Not available.
METAR TVSV 281900Z 09014KT 9999 FEW023 30/23 Q1013,-HZ

More Conditions Fewer Conditions

Pressure --
Visibility 6.2 miles
Clouds Few 2300 ft
Heat Index 93 °F
Dew Point 73 °F
Humidity 66%
Rainfall 0.00 in
Snow Depth Not available.
UV 9 out of 12
Pollen Not available.
Air Quality Not available.
Flu Activity Not available.
METAR TVSV 281900Z 09014KT 9999 FEW023 30/23 Q1013,-HZ

More Conditions Fewer Conditions

10-Day Weather Forecast

Almanac

Astronomy

Apr. 28, 2015 Rise Set
Actual Time
Civil Twilight
Nautical Twilight
Astronomical Twilight
Moon
Length of Visible Light
Length of Day
Tomorrow will be .
, % of the Moon is Illuminated

Today's Extremes

Country Highs Country Lows

Community

WunderPhotos

Upload Photos

1,817,741 photos uploaded!

WunderBlogs® & News

Nearby

Air Quality

  Air Quality AQ Index Pollutant
Not available.

Snow Depth

Station Depth Elevation

Earthquake Activity

City Distance Mag. Time & Date
Minimum magnitude displayed is 2.5.

Coastal Water Temperatures

Place Temperature

Stations

Nearby Weather Stations

Station Location Temp. Windchill Dew Point Humidity Wind Precip. Elev Updated Type